Irvington, Alabama
Current Conditions -  °F | °C
As of 12:56 PM on Monday 20 Oct 2014 (Local Time) from KMOB Reporting Station
Broken Clouds Broken Clouds  
Wind Chill: 77°   Ceiling: 20000
Heat Index: 78°   Visibility: 10mi
Dew Point: 48°   Wind: 6mph
Humidity: 36%   Direction: NA
Pressure: 30.05"   Gusts: NA
Location:  30.51°N, 88.23°W
Report Text: KMOB 201756Z VRB05KT 10SM FEW010 FEW150 BKN200 25/09 A3005 RMK AO2 SLP173 FU FEW010 T02500089 10250 20106 58015
Loading
Personal Weather Stations






























Interactive Weather Map
Tropical Storm Tracking
New forecast layout! Learn more

10-Day Weather Forecast

Advertisements
Track Severe Weather on mobile